createdAt,value
2017-01-12T00:00:46.497Z,0
2017-01-12T00:01:46.481Z,0
2017-01-12T00:02:46.467Z,0
2017-01-12T00:03:46.460Z,0
2017-01-12T00:04:46.441Z,0
2017-01-12T00:05:46.432Z,0
2017-01-12T00:06:46.418Z,0
2017-01-12T00:07:46.416Z,0
2017-01-12T00:08:46.396Z,0
2017-01-12T00:09:46.393Z,0
2017-01-12T00:10:46.371Z,0
2017-01-12T00:11:46.363Z,0
2017-01-12T00:12:46.345Z,0
2017-01-12T00:13:46.337Z,0
2017-01-12T00:14:46.324Z,0
2017-01-12T00:15:46.314Z,0
2017-01-12T00:16:46.294Z,0
2017-01-12T00:17:46.283Z,0
2017-01-12T00:18:46.274Z,0
2017-01-12T00:19:46.281Z,0
2017-01-12T00:20:46.248Z,0
2017-01-12T00:21:46.236Z,0
2017-01-12T00:22:46.225Z,0
2017-01-12T00:23:46.206Z,0
2017-01-12T00:24:46.197Z,0
2017-01-12T00:25:46.185Z,0
2017-01-12T00:26:46.173Z,0
2017-01-12T00:27:46.546Z,0
2017-01-12T00:28:46.153Z,0
2017-01-12T00:29:46.141Z,0
2017-01-12T00:30:46.126Z,0
2017-01-12T00:31:46.113Z,0
2017-01-12T00:32:46.099Z,0
2017-01-12T00:33:46.089Z,0
2017-01-12T00:34:46.076Z,0
2017-01-12T00:35:46.072Z,0
2017-01-12T00:36:46.051Z,0
2017-01-12T00:37:46.046Z,0
2017-01-12T00:38:46.026Z,0
2017-01-12T00:39:46.017Z,0
2017-01-12T00:40:46.002Z,0
2017-01-12T00:41:45.993Z,0
2017-01-12T00:42:45.983Z,0
2017-01-12T00:43:45.982Z,0
2017-01-12T00:44:45.953Z,0
2017-01-12T00:45:45.947Z,0
2017-01-12T00:46:45.961Z,0
2017-01-12T00:47:45.922Z,0
2017-01-12T00:48:45.909Z,0
2017-01-12T00:49:45.894Z,0
2017-01-12T00:50:45.880Z,0
2017-01-12T00:51:45.870Z,0
2017-01-12T00:52:45.858Z,0
2017-01-12T00:53:45.844Z,0
2017-01-12T00:54:45.831Z,0
2017-01-12T00:55:45.826Z,0
2017-01-12T00:56:45.810Z,0
2017-01-12T00:57:45.800Z,0
2017-01-12T00:58:45.787Z,0
2017-01-12T00:59:45.774Z,0
2017-01-12T01:00:45.762Z,0
2017-01-12T01:01:46.135Z,0
2017-01-12T01:02:45.738Z,0
2017-01-12T01:03:45.724Z,0
2017-01-12T01:04:45.712Z,0
2017-01-12T01:05:45.698Z,0
2017-01-12T01:06:45.687Z,0
2017-01-12T01:07:45.678Z,0
2017-01-12T01:08:45.666Z,0
2017-01-12T01:09:45.654Z,0
2017-01-12T01:10:45.637Z,0
2017-01-12T01:11:45.628Z,0
2017-01-12T01:12:45.620Z,0
2017-01-12T01:13:45.603Z,0
2017-01-12T01:14:45.594Z,0
2017-01-12T01:15:45.576Z,0
2017-01-12T01:16:45.567Z,0
2017-01-12T01:17:45.551Z,0
2017-01-12T01:18:45.543Z,0
2017-01-12T01:19:45.528Z,0
2017-01-12T01:20:45.516Z,0
2017-01-12T01:21:45.508Z,0
2017-01-12T01:22:45.493Z,0
2017-01-12T01:23:45.482Z,0
2017-01-12T01:24:45.467Z,0
2017-01-12T01:25:45.842Z,0
2017-01-12T01:26:45.443Z,0
2017-01-12T01:27:45.429Z,0
2017-01-12T01:28:45.422Z,0
2017-01-12T01:29:45.407Z,0
2017-01-12T01:30:45.395Z,0
2017-01-12T01:31:45.382Z,0
2017-01-12T01:32:45.377Z,0
2017-01-12T01:33:45.359Z,0
2017-01-12T01:34:45.736Z,0
2017-01-12T01:35:45.341Z,0
2017-01-12T01:36:45.323Z,0
2017-01-12T01:37:45.311Z,0
2017-01-12T01:38:45.304Z,0
2017-01-12T01:39:45.286Z,0
2017-01-12T01:40:45.271Z,0
2017-01-12T01:41:45.261Z,0
2017-01-12T01:42:45.249Z,0
2017-01-12T01:43:45.240Z,0
2017-01-12T01:44:45.227Z,0
2017-01-12T01:45:45.213Z,0
2017-01-12T01:46:45.200Z,0
2017-01-12T01:47:45.192Z,0
2017-01-12T01:48:45.178Z,0
2017-01-12T01:49:45.179Z,0
2017-01-12T01:50:45.155Z,0
2017-01-12T01:51:45.146Z,0
2017-01-12T01:52:45.131Z,0
2017-01-12T01:53:45.121Z,0
2017-01-12T01:54:45.108Z,0
2017-01-12T01:55:45.099Z,0
2017-01-12T01:56:45.081Z,0
2017-01-12T01:57:45.076Z,0
2017-01-12T01:58:45.059Z,0
2017-01-12T01:59:45.049Z,0
2017-01-12T02:00:45.033Z,0
2017-01-12T02:01:45.027Z,0
2017-01-12T02:02:45.011Z,0
2017-01-12T02:03:45.005Z,0
2017-01-12T02:04:44.994Z,0
2017-01-12T02:05:44.977Z,0
2017-01-12T02:06:44.964Z,0
2017-01-12T02:07:44.953Z,0
2017-01-12T02:08:44.940Z,0
2017-01-12T02:09:44.928Z,0
2017-01-12T02:10:44.921Z,0
2017-01-12T02:11:44.908Z,0
2017-01-12T02:12:44.890Z,0
2017-01-12T02:13:44.885Z,0
2017-01-12T02:14:44.868Z,0
2017-01-12T02:15:44.857Z,0
2017-01-12T02:16:44.847Z,0
2017-01-12T02:17:44.834Z,0
2017-01-12T02:18:44.824Z,0
2017-01-12T02:19:44.811Z,0
2017-01-12T02:20:44.799Z,0
2017-01-12T02:21:44.787Z,0
2017-01-12T02:22:44.781Z,0
2017-01-12T02:23:44.763Z,0
2017-01-12T02:24:44.752Z,0
2017-01-12T02:25:44.740Z,0
2017-01-12T02:26:44.725Z,0
2017-01-12T02:27:44.715Z,0
2017-01-12T02:28:44.703Z,0
2017-01-12T02:29:44.694Z,0
2017-01-12T02:30:44.679Z,0
2017-01-12T02:31:44.669Z,0
2017-01-12T02:32:44.655Z,0
2017-01-12T02:33:44.643Z,0
2017-01-12T02:34:44.633Z,0
2017-01-12T02:35:44.616Z,0
2017-01-12T02:36:44.606Z,0
2017-01-12T02:37:44.595Z,0
2017-01-12T02:38:44.582Z,0
2017-01-12T02:39:44.570Z,0
2017-01-12T02:40:44.564Z,0
2017-01-12T02:41:44.544Z,0
2017-01-12T02:42:44.537Z,0
2017-01-12T02:43:44.520Z,0
2017-01-12T02:44:44.513Z,0
2017-01-12T02:45:44.497Z,0
2017-01-12T02:46:44.882Z,0
2017-01-12T02:47:44.475Z,0
2017-01-12T02:48:44.465Z,0
2017-01-12T02:49:44.451Z,0
2017-01-12T02:50:44.442Z,0
2017-01-12T02:51:44.423Z,0
2017-01-12T02:52:44.799Z,0
2017-01-12T02:53:44.427Z,0
2017-01-12T02:54:44.387Z,0
2017-01-12T02:55:44.376Z,0
2017-01-12T02:56:44.369Z,0
2017-01-12T02:57:44.352Z,0
2017-01-12T02:58:44.342Z,0
2017-01-12T02:59:44.327Z,0
2017-01-12T03:00:44.316Z,0
2017-01-12T03:01:44.310Z,0
2017-01-12T03:02:44.292Z,0
2017-01-12T03:03:44.280Z,0
2017-01-12T03:04:44.269Z,0
2017-01-12T03:05:44.256Z,0
2017-01-12T03:06:44.247Z,0
2017-01-12T03:07:44.229Z,0
2017-01-12T03:08:44.226Z,0
2017-01-12T03:09:44.203Z,0
2017-01-12T03:10:44.197Z,0
2017-01-12T03:11:44.212Z,0
2017-01-12T03:12:44.169Z,0
2017-01-12T03:13:44.155Z,0
2017-01-12T03:14:44.146Z,0
2017-01-12T03:15:44.139Z,0
2017-01-12T03:16:44.121Z,0
2017-01-12T03:17:44.108Z,0
2017-01-12T03:18:44.097Z,0
2017-01-12T03:19:44.081Z,0
2017-01-12T03:20:44.072Z,0
2017-01-12T03:21:44.059Z,0
2017-01-12T03:22:44.052Z,0
2017-01-12T03:23:44.035Z,0
2017-01-12T03:24:44.422Z,0
2017-01-12T03:25:44.011Z,0
2017-01-12T03:26:43.997Z,0
2017-01-12T03:27:43.986Z,0
2017-01-12T03:28:43.974Z,0
2017-01-12T03:29:43.963Z,0
2017-01-12T03:30:43.952Z,0
2017-01-12T03:31:43.935Z,0
2017-01-12T03:32:43.930Z,0
2017-01-12T03:33:43.916Z,0
2017-01-12T03:34:43.900Z,0
2017-01-12T03:35:43.889Z,0
2017-01-12T03:36:43.882Z,0
2017-01-12T03:37:43.864Z,0
2017-01-12T03:38:43.853Z,0
2017-01-12T03:39:43.838Z,0
2017-01-12T03:40:43.828Z,0
2017-01-12T03:41:43.817Z,0
2017-01-12T03:42:43.806Z,0
2017-01-12T03:43:43.793Z,0
2017-01-12T03:44:43.779Z,0
2017-01-12T03:45:44.152Z,0
2017-01-12T03:46:43.757Z,0
2017-01-12T03:47:43.742Z,0
2017-01-12T03:48:43.731Z,0
2017-01-12T03:49:43.721Z,0
2017-01-12T03:50:43.705Z,0
2017-01-12T03:51:43.694Z,0
2017-01-12T03:52:43.707Z,0
2017-01-12T03:53:43.672Z,0
2017-01-12T03:54:43.656Z,0
2017-01-12T03:55:43.643Z,0
2017-01-12T03:56:43.659Z,0
2017-01-12T03:57:43.616Z,0
2017-01-12T03:58:43.609Z,0
2017-01-12T03:59:43.601Z,0
2017-01-12T04:00:43.584Z,0
2017-01-12T04:01:43.570Z,0
2017-01-12T04:02:43.556Z,0
2017-01-12T04:03:43.932Z,0
2017-01-12T04:04:43.535Z,0
2017-01-12T04:05:43.532Z,0
2017-01-12T04:06:43.507Z,0
2017-01-12T04:07:43.508Z,0
2017-01-12T04:08:43.487Z,0
2017-01-12T04:09:43.859Z,0
2017-01-12T04:10:43.456Z,0
2017-01-12T04:11:43.448Z,0
2017-01-12T04:12:43.434Z,0
2017-01-12T04:13:43.420Z,0
2017-01-12T04:14:43.801Z,0
2017-01-12T04:15:43.398Z,0
2017-01-12T04:16:43.389Z,0
2017-01-12T04:17:43.401Z,0
2017-01-12T04:18:43.362Z,0
2017-01-12T04:19:43.358Z,0
2017-01-12T04:20:43.342Z,0
2017-01-12T04:21:43.321Z,0
2017-01-12T04:22:43.317Z,0
2017-01-12T04:23:43.319Z,0
2017-01-12T04:24:43.291Z,0
2017-01-12T04:25:43.274Z,0
2017-01-12T04:26:43.264Z,0
2017-01-12T04:27:43.250Z,0
2017-01-12T04:28:43.268Z,0
2017-01-12T04:29:43.228Z,0
2017-01-12T04:30:43.214Z,0
2017-01-12T04:31:43.199Z,0
2017-01-12T04:32:43.192Z,0
2017-01-12T04:33:43.566Z,0
2017-01-12T04:34:43.165Z,0
2017-01-12T04:35:43.157Z,0
2017-01-12T04:36:43.139Z,0
2017-01-12T04:37:43.127Z,0
2017-01-12T04:38:43.115Z,0
2017-01-12T04:39:43.101Z,0
2017-01-12T04:40:43.095Z,0
2017-01-12T04:41:43.076Z,28
2017-01-12T04:42:43.075Z,36
2017-01-12T04:43:43.051Z,40
2017-01-12T04:44:43.038Z,44
2017-01-12T04:45:43.027Z,44
2017-01-12T04:46:43.017Z,44
2017-01-12T04:47:43.007Z,44
2017-01-12T04:48:42.991Z,44
2017-01-12T04:49:42.981Z,44
2017-01-12T04:50:42.962Z,44
2017-01-12T04:51:42.968Z,44
2017-01-12T04:52:42.940Z,44
2017-01-12T04:53:42.930Z,44
2017-01-12T04:54:42.911Z,44
2017-01-12T04:55:42.906Z,44
2017-01-12T04:56:42.903Z,44
2017-01-12T04:57:42.878Z,44
2017-01-12T04:58:43.256Z,44
2017-01-12T04:59:42.853Z,44
2017-01-12T05:00:42.848Z,44
2017-01-12T05:01:42.832Z,44
2017-01-12T05:02:42.817Z,44
2017-01-12T05:03:42.806Z,44
2017-01-12T05:04:42.793Z,44
2017-01-12T05:05:42.780Z,44
2017-01-12T05:06:42.768Z,44
2017-01-12T05:07:42.753Z,44
2017-01-12T05:08:42.740Z,44
2017-01-12T05:09:42.737Z,44
2017-01-12T05:10:42.718Z,44
2017-01-12T05:11:42.702Z,44
2017-01-12T05:12:42.695Z,44
2017-01-12T05:13:42.682Z,44
2017-01-12T05:14:42.677Z,44
2017-01-12T05:15:42.655Z,44
2017-01-12T05:16:42.642Z,44
2017-01-12T05:17:42.629Z,44
2017-01-12T05:18:42.619Z,0
2017-01-12T05:19:42.603Z,0
2017-01-12T05:20:42.596Z,0
2017-01-12T05:21:42.587Z,0
2017-01-12T05:22:42.570Z,0
2017-01-12T05:23:42.557Z,0
2017-01-12T05:24:42.548Z,0
2017-01-12T05:25:42.534Z,0
2017-01-12T05:26:42.519Z,0
2017-01-12T05:27:42.506Z,0
2017-01-12T05:28:42.497Z,0
2017-01-12T05:29:42.482Z,0
2017-01-12T05:30:42.471Z,0
2017-01-12T05:31:42.474Z,0
2017-01-12T05:32:42.447Z,0
2017-01-12T05:33:42.466Z,0
2017-01-12T05:34:42.420Z,0
2017-01-12T05:35:42.795Z,0
2017-01-12T05:36:42.398Z,0
2017-01-12T05:37:42.387Z,0
2017-01-12T05:38:42.372Z,0
2017-01-12T05:39:42.363Z,0
2017-01-12T05:40:42.347Z,0
2017-01-12T05:41:42.337Z,0
2017-01-12T05:42:42.323Z,0
2017-01-12T05:43:42.314Z,0
2017-01-12T05:44:42.299Z,0
2017-01-12T05:45:42.287Z,0
2017-01-12T05:46:42.274Z,0
2017-01-12T05:47:42.261Z,0
2017-01-12T05:48:42.248Z,0
2017-01-12T05:49:42.235Z,0
2017-01-12T05:50:42.222Z,0
2017-01-12T05:51:42.211Z,0
2017-01-12T05:52:42.199Z,0
2017-01-12T05:53:42.185Z,0
2017-01-12T05:54:42.203Z,0
2017-01-12T05:55:42.164Z,0
2017-01-12T05:56:42.149Z,0
2017-01-12T05:57:42.134Z,0
2017-01-12T05:58:42.124Z,0
2017-01-12T05:59:42.111Z,0
2017-01-12T06:00:42.096Z,0
2017-01-12T06:01:42.089Z,0
2017-01-12T06:02:42.079Z,0
2017-01-12T06:03:42.063Z,0
2017-01-12T06:04:42.050Z,0
2017-01-12T06:05:42.038Z,0
2017-01-12T06:06:42.023Z,0
2017-01-12T06:07:42.013Z,0
2017-01-12T06:08:42.001Z,0
2017-01-12T06:09:41.988Z,0
2017-01-12T06:10:41.975Z,0
2017-01-12T06:11:41.962Z,0
2017-01-12T06:12:41.954Z,0
2017-01-12T06:13:41.939Z,0
2017-01-12T06:14:42.312Z,0
2017-01-12T06:15:41.913Z,0
2017-01-12T06:16:41.908Z,0
2017-01-12T06:17:41.888Z,0
2017-01-12T06:18:41.875Z,0
2017-01-12T06:19:41.865Z,0
2017-01-12T06:20:41.852Z,0
2017-01-12T06:21:41.837Z,0
2017-01-12T06:22:41.830Z,0
2017-01-12T06:23:41.815Z,0
2017-01-12T06:24:41.803Z,0
2017-01-12T06:25:41.790Z,0
2017-01-12T06:26:41.778Z,0
2017-01-12T06:27:41.764Z,0
2017-01-12T06:28:41.754Z,0
2017-01-12T06:29:41.737Z,4
2017-01-12T06:30:41.726Z,4
2017-01-12T06:31:41.717Z,0
2017-01-12T06:32:41.703Z,4
2017-01-12T06:33:41.688Z,4
2017-01-12T06:34:41.681Z,4
2017-01-12T06:35:41.666Z,4
2017-01-12T06:36:41.652Z,4
2017-01-12T06:37:41.640Z,8
2017-01-12T06:38:41.634Z,8
2017-01-12T06:39:41.649Z,8
2017-01-12T06:40:41.602Z,12
2017-01-12T06:41:41.614Z,12
2017-01-12T06:42:41.582Z,16
2017-01-12T06:43:41.564Z,16
2017-01-12T06:44:41.576Z,20
2017-01-12T06:45:41.926Z,24
2017-01-12T06:46:41.528Z,28
2017-01-12T06:47:41.510Z,32
2017-01-12T06:48:41.502Z,40
2017-01-12T06:49:41.482Z,44
2017-01-12T06:50:41.477Z,52
2017-01-12T06:51:41.460Z,64
2017-01-12T06:52:41.443Z,60
2017-01-12T06:53:41.430Z,72
2017-01-12T06:54:41.444Z,84
2017-01-12T06:55:41.790Z,96
2017-01-12T06:56:41.393Z,104
2017-01-12T06:57:41.378Z,116
2017-01-12T06:58:41.363Z,132
2017-01-12T06:59:41.352Z,152
2017-01-12T07:00:41.345Z,160
2017-01-12T07:01:41.326Z,176
2017-01-12T07:02:41.317Z,184
2017-01-12T07:03:41.303Z,208
2017-01-12T07:04:41.288Z,224
2017-01-12T07:05:41.271Z,248
2017-01-12T07:06:41.258Z,268
2017-01-12T07:07:41.251Z,292
2017-01-12T07:08:41.621Z,328
2017-01-12T07:09:41.217Z,324
2017-01-12T07:10:41.211Z,364
2017-01-12T07:11:41.193Z,364
2017-01-12T07:12:41.177Z,388
2017-01-12T07:13:41.164Z,416
2017-01-12T07:14:41.152Z,452
2017-01-12T07:15:41.169Z,472
2017-01-12T07:16:41.126Z,504
2017-01-12T07:17:41.115Z,520
2017-01-12T07:18:41.097Z,548
2017-01-12T07:19:41.089Z,568
2017-01-12T07:20:41.098Z,584
2017-01-12T07:21:41.058Z,648
2017-01-12T07:22:41.049Z,664
2017-01-12T07:23:41.036Z,636
2017-01-12T07:24:41.025Z,624
2017-01-12T07:25:41.014Z,644
2017-01-12T07:26:40.997Z,672
2017-01-12T07:27:40.983Z,664
2017-01-12T07:28:40.966Z,668
2017-01-12T07:29:40.958Z,692
2017-01-12T07:30:40.951Z,708
2017-01-12T07:31:40.932Z,768
2017-01-12T07:32:40.916Z,880
2017-01-12T07:33:40.904Z,972
2017-01-12T07:34:40.901Z,1184
2017-01-12T07:35:40.875Z,1308
2017-01-12T07:36:40.862Z,1472
2017-01-12T07:37:40.855Z,1492
2017-01-12T07:38:40.843Z,1428
2017-01-12T07:39:40.829Z,1332
2017-01-12T07:40:40.815Z,1268
2017-01-12T07:41:40.807Z,1320
2017-01-12T07:42:40.790Z,1420
2017-01-12T07:43:40.783Z,1620
2017-01-12T07:44:40.768Z,1772
2017-01-12T07:45:40.754Z,1684
2017-01-12T07:46:40.740Z,1452
2017-01-12T07:47:40.730Z,1388
2017-01-12T07:48:40.717Z,1268
2017-01-12T07:49:40.703Z,1172
2017-01-12T07:50:40.691Z,1108
2017-01-12T07:51:40.677Z,1048
2017-01-12T07:52:40.676Z,1072
2017-01-12T07:53:40.657Z,1144
2017-01-12T07:54:40.644Z,1120
2017-01-12T07:55:40.633Z,1216
2017-01-12T07:56:40.617Z,1228
2017-01-12T07:57:40.606Z,1152
2017-01-12T07:58:40.593Z,1216
2017-01-12T07:59:40.585Z,1332
2017-01-12T08:00:40.572Z,1532
2017-01-12T08:01:40.556Z,1612
2017-01-12T08:02:40.549Z,1732
2017-01-12T08:03:40.534Z,2012
2017-01-12T08:04:40.519Z,2040
2017-01-12T08:05:40.900Z,1952
2017-01-12T08:06:40.889Z,1688
2017-01-12T08:07:40.484Z,1472
2017-01-12T08:08:40.477Z,1392
2017-01-12T08:09:40.849Z,1264
2017-01-12T08:10:40.448Z,1392
2017-01-12T08:11:40.832Z,1616
2017-01-12T08:12:40.427Z,2048
2017-01-12T08:13:40.418Z,2216
2017-01-12T08:14:40.404Z,2620
2017-01-12T08:15:40.391Z,3024
2017-01-12T08:16:40.766Z,3220
2017-01-12T08:17:40.369Z,2872
2017-01-12T08:18:40.373Z,3004
2017-01-12T08:19:40.341Z,3208
2017-01-12T08:20:40.717Z,2956
2017-01-12T08:21:40.320Z,3200
2017-01-12T08:22:40.314Z,3632
2017-01-12T08:23:40.296Z,3656
2017-01-12T08:24:40.286Z,4872
2017-01-12T08:25:40.277Z,4992
2017-01-12T08:26:40.258Z,4168
2017-01-12T08:27:40.247Z,3996
2017-01-12T08:28:40.235Z,3840
2017-01-12T08:29:40.221Z,4020
2017-01-12T08:30:40.210Z,3644
2017-01-12T08:31:40.214Z,3388
2017-01-12T08:32:40.193Z,3176
2017-01-12T08:33:40.178Z,2688
2017-01-12T08:34:40.216Z,2476
2017-01-12T08:35:40.153Z,2372
2017-01-12T08:36:40.142Z,2572
2017-01-12T08:37:40.135Z,2816
2017-01-12T08:38:40.125Z,3188
2017-01-12T08:39:40.107Z,3036
2017-01-12T08:40:40.100Z,3260
2017-01-12T08:41:40.087Z,3192
2017-01-12T08:42:40.074Z,3360
2017-01-12T08:43:40.064Z,3632
2017-01-12T08:44:40.051Z,4312
2017-01-12T08:45:40.427Z,4532
2017-01-12T08:46:40.028Z,4508
2017-01-12T08:47:40.021Z,5208
2017-01-12T08:48:40.006Z,5076
2017-01-12T08:49:40.004Z,5576
2017-01-12T08:50:39.982Z,5364
2017-01-12T08:51:39.973Z,5680
2017-01-12T08:52:39.962Z,5828
2017-01-12T08:53:39.952Z,4984
2017-01-12T08:54:39.948Z,4288
2017-01-12T08:55:39.933Z,3700
2017-01-12T08:56:39.916Z,3272
2017-01-12T08:57:39.912Z,4024
2017-01-12T08:58:39.897Z,5124
2017-01-12T08:59:39.892Z,6184
2017-01-12T09:00:40.463Z,5296
2017-01-12T09:01:39.866Z,3840
2017-01-12T09:02:39.859Z,3736
2017-01-12T09:03:39.841Z,3992
2017-01-12T09:04:39.841Z,4276
2017-01-12T09:05:39.820Z,4788
2017-01-12T09:06:39.811Z,4480
2017-01-12T09:07:39.826Z,4140
2017-01-12T09:08:39.791Z,3704
2017-01-12T09:09:39.775Z,4104
2017-01-12T09:10:39.769Z,4620
2017-01-12T09:11:39.763Z,4796
2017-01-12T09:12:39.748Z,4260
2017-01-12T09:13:40.130Z,3796
2017-01-12T09:14:39.726Z,3680
2017-01-12T09:15:39.714Z,3508
2017-01-12T09:16:39.743Z,3300
2017-01-12T09:17:39.698Z,3828
2017-01-12T09:18:39.678Z,4204
2017-01-12T09:19:39.682Z,4588
2017-01-12T09:20:40.045Z,4296
2017-01-12T09:21:39.650Z,3976
2017-01-12T09:22:39.643Z,3952
2017-01-12T09:23:39.629Z,4260
2017-01-12T09:24:39.622Z,4504
2017-01-12T09:25:39.603Z,4800
2017-01-12T09:26:39.597Z,5416
2017-01-12T09:27:39.590Z,5756
2017-01-12T09:28:39.573Z,5664
2017-01-12T09:29:39.564Z,5536
2017-01-12T09:30:39.584Z,5408
2017-01-12T09:31:39.544Z,5108
2017-01-12T09:32:39.540Z,4764
2017-01-12T09:33:39.519Z,4792
2017-01-12T09:34:39.515Z,5220
2017-01-12T09:35:39.510Z,5092
2017-01-12T09:36:39.493Z,4468
2017-01-12T09:37:39.479Z,4608
2017-01-12T09:38:39.471Z,4896
2017-01-12T09:39:39.457Z,5060
2017-01-12T09:40:39.835Z,4960
2017-01-12T09:41:39.437Z,4652
2017-01-12T09:42:39.427Z,4792
2017-01-12T09:43:39.415Z,5112
2017-01-12T09:44:39.416Z,4244
2017-01-12T09:45:39.398Z,3888
2017-01-12T09:46:39.384Z,3620
2017-01-12T09:47:39.378Z,4040
2017-01-12T09:48:39.367Z,4008
2017-01-12T09:49:39.355Z,4236
2017-01-12T09:50:39.351Z,4144
2017-01-12T09:51:39.337Z,3576
2017-01-12T09:52:39.332Z,2864
2017-01-12T09:53:39.315Z,2404
2017-01-12T09:54:39.313Z,2584
2017-01-12T09:55:39.299Z,3124
2017-01-12T09:56:39.287Z,3812
2017-01-12T09:57:39.274Z,4396
2017-01-12T09:58:39.260Z,4324
2017-01-12T09:59:39.254Z,4100
2017-01-12T10:00:39.246Z,3828
2017-01-12T10:01:39.236Z,4120
2017-01-12T10:02:39.220Z,4692
2017-01-12T10:03:39.598Z,4292
2017-01-12T10:04:39.200Z,3916
2017-01-12T10:05:39.188Z,2584
2017-01-12T10:06:39.180Z,1872
2017-01-12T10:07:39.203Z,1852
2017-01-12T10:08:39.160Z,2008
2017-01-12T10:09:39.179Z,2568
2017-01-12T10:10:39.147Z,2476
2017-01-12T10:11:39.125Z,2140
2017-01-12T10:12:39.118Z,2728
2017-01-12T10:13:39.108Z,3124
2017-01-12T10:14:39.095Z,3272
2017-01-12T10:15:39.084Z,3456
2017-01-12T10:16:39.076Z,3684
2017-01-12T10:17:39.067Z,2400
2017-01-12T10:18:39.051Z,1920
2017-01-12T10:19:39.047Z,2152
2017-01-12T10:20:39.030Z,2592
2017-01-12T10:21:39.025Z,3140
2017-01-12T10:22:39.011Z,4820
2017-01-12T10:23:39.382Z,4768
2017-01-12T10:24:38.989Z,4216
2017-01-12T10:25:38.975Z,4724
2017-01-12T10:26:38.963Z,4288
2017-01-12T10:27:38.965Z,4184
2017-01-12T10:28:38.948Z,4772
2017-01-12T10:29:38.934Z,5544
2017-01-12T10:30:39.307Z,5456
2017-01-12T10:31:38.919Z,5612
2017-01-12T10:32:38.903Z,4380
2017-01-12T10:33:39.280Z,3864
2017-01-12T10:34:39.264Z,3164
2017-01-12T10:35:38.873Z,2644
2017-01-12T10:36:38.860Z,2852
2017-01-12T10:37:38.847Z,3468
2017-01-12T10:38:38.839Z,4012
2017-01-12T10:39:38.840Z,4188
2017-01-12T10:40:38.816Z,4028
2017-01-12T10:41:38.816Z,3772
2017-01-12T10:42:38.802Z,4028
2017-01-12T10:43:38.785Z,4164
2017-01-12T10:44:39.164Z,3940
2017-01-12T10:45:38.767Z,3404
2017-01-12T10:46:38.757Z,3308
2017-01-12T10:47:38.745Z,3236
2017-01-12T10:48:38.741Z,2680
2017-01-12T10:49:38.724Z,2232
2017-01-12T10:50:39.105Z,2192
2017-01-12T10:51:38.705Z,2052
2017-01-12T10:52:38.691Z,1964
2017-01-12T10:53:38.684Z,2008
2017-01-12T10:54:38.670Z,2004
2017-01-12T10:55:38.670Z,2320
2017-01-12T10:56:38.649Z,2980
2017-01-12T10:57:38.644Z,3936
2017-01-12T10:58:38.626Z,4212
2017-01-12T10:59:39.012Z,4720
2017-01-12T11:00:38.611Z,5392
2017-01-12T11:01:38.596Z,5440
2017-01-12T11:02:38.587Z,4940
2017-01-12T11:03:38.574Z,6140
2017-01-12T11:04:38.564Z,6272
2017-01-12T11:05:38.560Z,5836
2017-01-12T11:06:38.543Z,5084
2017-01-12T11:07:38.533Z,5104
2017-01-12T11:08:38.525Z,5840
2017-01-12T11:09:38.512Z,6104
2017-01-12T11:10:38.495Z,5980
2017-01-12T11:11:38.494Z,5680
2017-01-12T11:12:38.485Z,6500
2017-01-12T11:13:38.472Z,7260
2017-01-12T11:14:38.460Z,9824
2017-01-12T11:15:38.448Z,10864
2017-01-12T11:16:38.436Z,9908
2017-01-12T11:17:38.428Z,8432
2017-01-12T11:18:38.416Z,7604
2017-01-12T11:19:38.407Z,7848
2017-01-12T11:20:38.397Z,8252
2017-01-12T11:21:38.389Z,8508
2017-01-12T11:22:38.373Z,8188
2017-01-12T11:23:38.365Z,7656
2017-01-12T11:24:38.353Z,7204
2017-01-12T11:25:38.342Z,6944
2017-01-12T11:26:38.339Z,6432
2017-01-12T11:27:38.325Z,6252
2017-01-12T11:28:38.318Z,6524
2017-01-12T11:29:38.307Z,6888
2017-01-12T11:30:38.295Z,7840
2017-01-12T11:31:38.284Z,8428
2017-01-12T11:32:38.275Z,9696
2017-01-12T11:33:38.266Z,9896
2017-01-12T11:34:38.259Z,9088
2017-01-12T11:35:38.244Z,8604
2017-01-12T11:36:38.233Z,8172
2017-01-12T11:37:38.612Z,8188
2017-01-12T11:38:38.216Z,8340
2017-01-12T11:39:38.204Z,8224
2017-01-12T11:40:38.194Z,8056
2017-01-12T11:41:38.190Z,7876
2017-01-12T11:42:38.180Z,7664
2017-01-12T11:43:38.183Z,7468
2017-01-12T11:44:38.158Z,7292
2017-01-12T11:45:38.161Z,7180
2017-01-12T11:46:38.139Z,7352
2017-01-12T11:47:38.132Z,7476
2017-01-12T11:48:38.126Z,7444
2017-01-12T11:49:38.114Z,7372
2017-01-12T11:50:38.102Z,7392
2017-01-12T11:51:38.091Z,7424
2017-01-12T11:52:38.089Z,7560
2017-01-12T11:53:38.079Z,7756
2017-01-12T11:54:38.062Z,7736
2017-01-12T11:55:38.057Z,7604
2017-01-12T11:56:38.050Z,7444
2017-01-12T11:57:38.036Z,7320
2017-01-12T11:58:38.035Z,7224
2017-01-12T11:59:38.016Z,7224
2017-01-12T12:00:38.012Z,7032
2017-01-12T12:01:37.997Z,6864
2017-01-12T12:02:37.987Z,6868
2017-01-12T12:03:37.980Z,7076
2017-01-12T12:04:38.359Z,7036
2017-01-12T12:05:37.961Z,7032
2017-01-12T12:06:37.954Z,6832
2017-01-12T12:07:37.942Z,6784
2017-01-12T12:08:37.935Z,6772
2017-01-12T12:09:37.924Z,6508
2017-01-12T12:10:37.914Z,6656
2017-01-12T12:11:37.903Z,6540
2017-01-12T12:12:37.898Z,6596
2017-01-12T12:13:37.886Z,6544
2017-01-12T12:14:37.879Z,6336
2017-01-12T12:15:37.969Z,5780
2017-01-12T12:16:37.863Z,5696
2017-01-12T12:17:37.849Z,6160
2017-01-12T12:18:38.230Z,5796
2017-01-12T12:19:37.833Z,5780
2017-01-12T12:20:37.819Z,5788
2017-01-12T12:21:37.813Z,5792
2017-01-12T12:22:37.807Z,5564
2017-01-12T12:23:37.796Z,5248
2017-01-12T12:24:37.783Z,5060
2017-01-12T12:25:37.773Z,4996
2017-01-12T12:26:37.768Z,4796
2017-01-12T12:27:37.754Z,4468
2017-01-12T12:28:37.749Z,4524
2017-01-12T12:29:37.737Z,4972
2017-01-12T12:30:37.731Z,4484
2017-01-12T12:31:37.759Z,4620
2017-01-12T12:32:37.712Z,5768
2017-01-12T12:33:37.701Z,5724
2017-01-12T12:34:37.690Z,5260
2017-01-12T12:35:37.690Z,4280
2017-01-12T12:36:37.677Z,5104
2017-01-12T12:37:37.667Z,5552
2017-01-12T12:38:37.659Z,5756
2017-01-12T12:39:37.647Z,5288
2017-01-12T12:40:37.634Z,5428
2017-01-12T12:41:37.630Z,5428
2017-01-12T12:42:37.618Z,5284
2017-01-12T12:43:37.996Z,5132
2017-01-12T12:44:37.598Z,5248
2017-01-12T12:45:37.591Z,5328
2017-01-12T12:46:37.578Z,4380
2017-01-12T12:47:37.573Z,3940
2017-01-12T12:48:37.560Z,4124
2017-01-12T12:49:37.551Z,5080
2017-01-12T12:50:37.542Z,5088
2017-01-12T12:51:37.529Z,4672
2017-01-12T12:52:37.524Z,4452
2017-01-12T12:53:37.511Z,4568
2017-01-12T12:54:37.499Z,4672
2017-01-12T12:55:37.499Z,4732
2017-01-12T12:56:37.485Z,4284
2017-01-12T12:57:37.477Z,3548
2017-01-12T12:58:37.494Z,3996
2017-01-12T12:59:37.845Z,3848
2017-01-12T13:00:37.450Z,3856
2017-01-12T13:01:37.432Z,4268
2017-01-12T13:02:37.430Z,5216
2017-01-12T13:03:37.416Z,4900
2017-01-12T13:04:37.407Z,4604
2017-01-12T13:05:37.396Z,4784
2017-01-12T13:06:37.393Z,4688
2017-01-12T13:07:37.411Z,4596
2017-01-12T13:08:37.755Z,4520
2017-01-12T13:09:37.370Z,4436
2017-01-12T13:10:37.350Z,4144
2017-01-12T13:11:37.337Z,4664
2017-01-12T13:12:37.328Z,5092
2017-01-12T13:13:37.357Z,4884
2017-01-12T13:14:37.313Z,4844
2017-01-12T13:15:37.303Z,4944
2017-01-12T13:16:37.675Z,4520
2017-01-12T13:17:37.281Z,4384
2017-01-12T13:18:37.277Z,4372
2017-01-12T13:19:37.264Z,3968
2017-01-12T13:20:37.253Z,3848
2017-01-12T13:21:37.239Z,4388
2017-01-12T13:22:37.231Z,4948
2017-01-12T13:23:37.221Z,4980
2017-01-12T13:24:37.211Z,4612
2017-01-12T13:25:37.203Z,3620
2017-01-12T13:26:37.191Z,3444
2017-01-12T13:27:37.187Z,3332
2017-01-12T13:28:37.170Z,3656
2017-01-12T13:29:37.160Z,3208
2017-01-12T13:30:37.148Z,3008
2017-01-12T13:31:37.146Z,3176
2017-01-12T13:32:37.135Z,3020
2017-01-12T13:33:37.120Z,3264
2017-01-12T13:34:37.112Z,3620
2017-01-12T13:35:37.490Z,3732
2017-01-12T13:36:37.476Z,3852
2017-01-12T13:37:37.098Z,3540
2017-01-12T13:38:37.074Z,3124
2017-01-12T13:39:37.061Z,3088
2017-01-12T13:40:37.048Z,3188
2017-01-12T13:41:37.043Z,3440
2017-01-12T13:42:37.045Z,3220
2017-01-12T13:43:37.023Z,2908
2017-01-12T13:44:37.011Z,3064
2017-01-12T13:45:37.000Z,2916
2017-01-12T13:46:36.989Z,3060
2017-01-12T13:47:36.983Z,3176
2017-01-12T13:48:36.965Z,3324
2017-01-12T13:49:36.966Z,3460
2017-01-12T13:50:36.947Z,3524
2017-01-12T13:51:36.938Z,3460
2017-01-12T13:52:36.934Z,3444
2017-01-12T13:53:36.946Z,3368
2017-01-12T13:54:37.292Z,3124
2017-01-12T13:55:36.899Z,3052
2017-01-12T13:56:36.888Z,2936
2017-01-12T13:57:36.882Z,2672
2017-01-12T13:58:36.870Z,2464
2017-01-12T13:59:36.867Z,2500